Antalya International Airport


Codes: LTAI/AYT
Name: Antalya International Airport
City: Antalya
Country: Turkey
Elevation: 177 ft.
Wikipedia:

Photos at Antalya International Airport


   Photos courtesy of SpottingLog. You can add your own sightings and photos by signing up for a free trial today.



SX-ABQ, 25-Aug-2023
© Jan Severijns

LY-MLK, 14-Jul-2023
© SIMON BAKER

9H-NZL, 14-Jul-2023
© SIMON BAKER

TC-SPA, 14-Jul-2023
© SIMON BAKER

TC-JYM, 14-Jul-2023
© SIMON BAKER

VP-BTS, 14-Jul-2023
© SIMON BAKER

OK-TVT, 14-Jul-2023
© SIMON BAKER

TC-SPB, 14-Jul-2023
© SIMON BAKER

TC-GRO, 14-Jul-2023
© SIMON BAKER

TC-NBS, 14-Jul-2023
© SIMON BAKER

RA-73128, 14-Jul-2023
© SIMON BAKER

TC-NBN, 14-Jul-2023
© SIMON BAKER


Weather at Antalya International Airport


Time (UTC)DescriptionTempratureWindCloud coverageVisibilityPressureHumidity
21-Jun-2024 12:00Few Clouds31°C9 mph, S13%10000m1006hPa66%
21-Jun-2024 15:00Clear Sky30°C7 mph, SE9%10000m1005hPa63%
21-Jun-2024 18:00Clear Sky27°C7 mph, NE4%10000m1004hPa72%
21-Jun-2024 21:00Clear Sky28°C2 mph, NE0%10000m1003hPa63%
22-Jun-2024 00:00Clear Sky27°C2 mph, NE0%10000m1002hPa48%
22-Jun-2024 03:00Clear Sky27°C4 mph, NE0%10000m1003hPa45%
22-Jun-2024 06:00Clear Sky31°C4 mph, NE0%10000m1003hPa39%
22-Jun-2024 09:00Clear Sky32°C11 mph, S0%10000m1002hPa46%
22-Jun-2024 12:00Clear Sky31°C13 mph, S0%10000m1002hPa57%
22-Jun-2024 15:00Clear Sky30°C7 mph, SE0%10000m1002hPa59%
22-Jun-2024 18:00Clear Sky27°C2 mph, SE0%10000m1002hPa69%
22-Jun-2024 21:00Clear Sky26°C2 mph, N0%10000m1002hPa71%
23-Jun-2024 00:00Clear Sky27°C0 mph, S0%10000m1001hPa58%
23-Jun-2024 03:00Clear Sky26°C0 mph, NE0%10000m1001hPa50%
23-Jun-2024 06:00Clear Sky31°C2 mph, SE0%10000m1002hPa37%
23-Jun-2024 09:00Clear Sky32°C13 mph, S0%10000m1002hPa44%
23-Jun-2024 12:00Clear Sky31°C11 mph, SE0%10000m1002hPa49%
23-Jun-2024 15:00Clear Sky30°C9 mph, SE0%10000m1002hPa53%
23-Jun-2024 18:00Clear Sky28°C4 mph, SE0%10000m1003hPa67%
23-Jun-2024 21:00Clear Sky27°C0 mph, N0%10000m1004hPa72%
24-Jun-2024 00:00Clear Sky26°C0 mph, N0%10000m1003hPa63%
24-Jun-2024 03:00Clear Sky26°C2 mph, SE0%10000m1003hPa60%
24-Jun-2024 06:00Clear Sky30°C7 mph, S0%10000m1004hPa52%
24-Jun-2024 09:00Clear Sky31°C11 mph, S0%10000m1005hPa56%
24-Jun-2024 12:00Clear Sky31°C9 mph, SE0%10000m1005hPa55%
24-Jun-2024 15:00Clear Sky30°C9 mph, S4%10000m1005hPa61%
24-Jun-2024 18:00Clear Sky27°C2 mph, S3%10000m1006hPa70%
24-Jun-2024 21:00Clear Sky26°C2 mph, NE0%10000m1006hPa75%
25-Jun-2024 00:00Clear Sky27°C0 mph, NW0%10000m1005hPa69%
25-Jun-2024 03:00Clear Sky26°C2 mph, S0%10000m1004hPa65%
25-Jun-2024 06:00Clear Sky29°C7 mph, S0%10000m1005hPa58%
25-Jun-2024 09:00Clear Sky31°C11 mph, S0%10000m1005hPa58%
25-Jun-2024 12:00Clear Sky31°C9 mph, S3%10000m1004hPa57%
25-Jun-2024 15:00Few Clouds31°C9 mph, SE14%10000m1003hPa58%
25-Jun-2024 18:00Scattered Clouds29°C4 mph, E31%10000m1003hPa63%
25-Jun-2024 21:00Broken Clouds28°C4 mph, S84%10000m1003hPa66%
26-Jun-2024 00:00Scattered Clouds27°C2 mph, S44%10000m1002hPa65%
26-Jun-2024 03:00Clear Sky27°C2 mph, SE0%10000m1003hPa61%
26-Jun-2024 06:00Clear Sky29°C7 mph, SE0%10000m1004hPa58%
26-Jun-2024 09:00Clear Sky32°C9 mph, S0%10000m1004hPa54%